Time;durP1;ratioP1;P1;durP2;ratioP2;P2;SDS_P1;SDS_P2;PMS_P1;PMS_P2;Temp;Humidity;BMP_temperature;BMP_pressure;BME280_temperature;BME280_humidity;BME280_pressure;Samples;Min_cycle;Max_cycle;Signal;HPM_P1;HPM_P2
2021/03/15 00:00:44;;;;;;;14.75;2.45;;;8.10;61.80;;;;;;5090378;28;20126;-68
2021/03/15 00:03:10;;;;;;;12.32;2.88;;;8.10;61.50;;;;;;5090199;28;20031;-68
2021/03/15 00:05:35;;;;;;;;;;;8.10;62.10;;;;;;5090740;28;20051;-67
2021/03/15 00:08:01;;;;;;;9.10;2.53;;;8.00;62.50;;;;;;5090276;28;20325;-68
2021/03/15 00:10:27;;;;;;;;;;;8.10;62.30;;;;;;5089665;28;20057;-68
2021/03/15 00:12:53;;;;;;;5.80;2.80;;;8.00;62.60;;;;;;5090095;28;20068;-68
2021/03/15 00:15:19;;;;;;;;;;;7.90;63.20;;;;;;5090472;28;20458;-68
2021/03/15 00:17:45;;;;;;;6.85;2.92;;;7.80;63.50;;;;;;5090111;28;20406;-67
2021/03/15 00:20:12;;;;;;;;;;;7.80;63.90;;;;;;5090610;28;20047;-68
2021/03/15 00:22:38;;;;;;;6.68;2.28;;;7.80;64.00;;;;;;5089937;28;20284;-67
2021/03/15 00:25:07;;;;;;;9.73;2.80;;;7.90;63.40;;;;;;5089781;28;20568;-68
2021/03/15 00:27:33;;;;;;;5.35;2.45;;;7.80;64.00;;;;;;5089858;28;20027;-67
2021/03/15 00:29:59;;;;;;;5.70;2.58;;;7.70;64.20;;;;;;5088653;28;20098;-68
2021/03/15 00:32:25;;;;;;;;;;;7.80;63.90;;;;;;5089004;28;20036;-68
2021/03/15 00:34:51;;;;;;;5.45;2.33;;;7.70;64.00;;;;;;5089660;28;19933;-68
2021/03/15 00:37:16;;;;;;;;;;;7.50;64.50;;;;;;5089958;28;20080;-67
2021/03/15 00:39:42;;;;;;;5.85;2.20;;;7.50;65.00;;;;;;5088822;28;19945;-68
2021/03/15 00:42:07;;;;;;;;;;;7.40;65.50;;;;;;5089995;28;20039;-68
2021/03/15 00:44:34;;;;;;;7.20;2.83;;;7.40;65.70;;;;;;5089499;28;20403;-67
2021/03/15 00:47:01;;;;;;;7.18;2.78;;;7.30;65.50;;;;;;5089575;28;20063;-67
2021/03/15 00:49:26;;;;;;;5.22;2.78;;;7.30;65.60;;;;;;5088147;28;20028;-68
2021/03/15 00:51:52;;;;;;;;;;;7.40;65.80;;;;;;5089882;28;20519;-68
2021/03/15 00:54:18;;;;;;;4.95;2.45;;;7.30;65.70;;;;;;5089352;28;20389;-68
2021/03/15 00:56:43;;;;;;;4.72;2.33;;;7.30;66.00;;;;;;5089219;28;20036;-66
2021/03/15 00:59:09;;;;;;;;;;;7.30;66.00;;;;;;5088228;28;20504;-67
2021/03/15 01:01:35;;;;;;;5.63;2.33;;;7.30;66.00;;;;;;5089206;28;19908;-67
2021/03/15 01:04:00;;;;;;;6.72;2.13;;;7.30;65.90;;;;;;5089163;28;20055;-68
2021/03/15 01:06:26;;;;;;;6.40;2.90;;;7.30;66.00;;;;;;5089021;28;20074;-67
2021/03/15 01:08:51;;;;;;;;;;;7.30;64.80;;;;;;5089449;28;20403;-68
2021/03/15 01:11:17;;;;;;;5.93;2.38;;;7.30;65.10;;;;;;5089171;28;19915;-68
2021/03/15 01:13:43;;;;;;;;;;;7.30;64.40;;;;;;5088079;28;20028;-68
2021/03/15 01:16:09;;;;;;;6.60;2.17;;;7.40;64.20;;;;;;5088964;28;20380;-67
2021/03/15 01:18:35;;;;;;;;;;;7.30;64.60;;;;;;5089382;28;20760;-68
2021/03/15 01:21:00;;;;;;;6.15;2.90;;;7.30;64.60;;;;;;5088772;28;20303;-68
2021/03/15 01:23:26;;;;;;;;;;;7.30;64.90;;;;;;5089331;28;20024;-67
2021/03/15 01:25:52;;;;;;;4.30;1.77;;;7.30;64.80;;;;;;5088701;28;19908;-68
2021/03/15 01:28:18;;;;;;;;;;;7.30;64.70;;;;;;5089191;28;20064;-67
2021/03/15 01:30:45;;;;;;;4.55;1.73;;;7.30;63.80;;;;;;5088776;28;20592;-67
2021/03/15 01:33:11;;;;;;;4.15;1.73;;;7.40;62.90;;;;;;5087228;28;20067;-67
2021/03/15 01:35:37;;;;;;;4.40;1.70;;;7.70;60.70;;;;;;5088604;28;20036;-67
2021/03/15 01:38:05;;;;;;;;;;;7.70;60.20;;;;;;5089108;28;20032;-67
2021/03/15 01:40:33;;;;;;;5.97;2.40;;;7.60;59.50;;;;;;5088588;28;20314;-67
2021/03/15 01:42:59;;;;;;;4.75;2.25;;;7.60;60.90;;;;;;5088559;28;20028;-67
2021/03/15 01:45:24;;;;;;;;;;;7.50;61.50;;;;;;5088996;28;20092;-68
2021/03/15 01:47:50;;;;;;;6.57;2.00;;;7.50;61.70;;;;;;5088527;28;19927;-68
2021/03/15 01:50:17;;;;;;;;;;;7.40;62.90;;;;;;5088845;28;20020;-67
2021/03/15 01:52:44;;;;;;;4.82;1.98;;;7.40;63.20;;;;;;5087142;28;20439;-68
2021/03/15 01:55:12;;;;;;;6.80;2.65;;;7.40;63.90;;;;;;5088135;28;20054;-67
2021/03/15 01:57:38;;;;;;;7.40;2.78;;;7.40;64.50;;;;;;5088390;28;20360;-67
2021/03/15 02:00:04;;;;;;;;;;;7.40;64.50;;;;;;5087454;28;20484;-68
2021/03/15 02:02:30;;;;;;;6.87;2.30;;;7.30;64.20;;;;;;5088467;28;20033;-67
2021/03/15 02:04:56;;;;;;;4.60;1.92;;;7.30;64.80;;;;;;5088139;28;20690;-68
2021/03/15 02:07:22;;;;;;;6.78;1.65;;;7.20;65.20;;;;;;5088079;28;20031;-67
2021/03/15 02:09:48;;;;;;;;;;;7.20;64.80;;;;;;5088773;28;20024;-67
2021/03/15 02:12:45;;;;;;;2.95;1.65;;;7.20;65.70;;;;;;5088237;28;20284;-67
2021/03/15 02:15:17;;;;;;;4.10;1.67;;;7.20;65.50;;;;;;5088060;28;20032;-67
2021/03/15 02:17:52;;;;;;;4.63;1.95;;;7.20;66.50;;;;;;5088295;28;20504;-67
2021/03/15 02:20:35;;;;;;;5.22;2.08;;;7.10;66.90;;;;;;5088213;28;20096;-67
2021/03/15 02:23:19;;;;;;;4.63;1.83;;;7.10;67.90;;;;;;5088049;28;20070;-67
2021/03/15 02:26:22;;;;;;;4.97;2.00;;;7.10;68.30;;;;;;5088189;28;20028;-67
2021/03/15 02:29:06;;;;;;;5.30;2.15;;;7.10;68.60;;;;;;5086960;28;20059;-67
2021/03/15 02:32:11;;;;;;;6.68;2.53;;;7.00;69.20;;;;;;5088120;28;20069;-68
2021/03/15 02:34:54;;;;;;;7.63;2.25;;;7.00;69.80;;;;;;5088067;28;20096;-67
2021/03/15 02:37:26;;;;;;;5.13;2.28;;;6.90;70.40;;;;;;5086555;28;20036;-67
2021/03/15 02:39:55;;;;;;;5.32;1.92;;;6.80;70.80;;;;;;5086810;28;20020;-68
2021/03/15 02:42:23;;;;;;;5.65;2.35;;;6.80;70.50;;;;;;5088094;28;20542;-68
2021/03/15 02:44:53;;;;;;;5.15;2.22;;;6.80;70.00;;;;;;5087951;28;20492;-67
2021/03/15 02:47:27;;;;;;;6.15;2.47;;;6.80;69.80;;;;;;5087645;28;20020;-66
2021/03/15 02:49:59;;;;;;;5.47;2.72;;;6.80;69.30;;;;;;5087628;28;20504;-67
2021/03/15 02:52:26;;;;;;;9.00;2.72;;;6.80;68.30;;;;;;5086609;28;20027;-66
2021/03/15 02:54:55;;;;;;;5.18;2.40;;;6.90;67.80;;;;;;5086295;28;20106;-67
2021/03/15 02:57:22;;;;;;;6.28;1.95;;;6.90;67.60;;;;;;5087825;28;20025;-67
2021/03/15 02:59:51;;;;;;;6.10;1.88;;;6.90;66.60;;;;;;5087802;28;20023;-67
2021/03/15 03:02:17;;;;;;;4.28;2.00;;;6.90;65.00;;;;;;5088889;28;20369;-65
2021/03/15 03:04:47;;;;;;;6.88;2.63;;;7.10;67.50;;;;;;5091391;28;20040;-67
2021/03/15 03:07:14;;;;;;;8.00;3.42;;;7.10;67.90;;;;;;5091289;28;20050;-67
2021/03/15 03:09:41;;;;;;;6.63;2.67;;;6.90;70.00;;;;;;5091418;28;20508;-68
2021/03/15 03:12:08;;;;;;;6.18;2.95;;;6.80;71.00;;;;;;5091328;28;20016;-66
2021/03/15 03:14:35;;;;;;;7.38;2.95;;;6.70;71.80;;;;;;5091318;28;20032;-67
2021/03/15 03:17:02;;;;;;;5.25;2.17;;;6.70;72.30;;;;;;5091220;28;20118;-67
2021/03/15 03:19:29;;;;;;;6.40;2.20;;;6.60;72.70;;;;;;5091253;28;20050;-65
2021/03/15 03:21:56;;;;;;;5.35;1.92;;;6.60;72.90;;;;;;5091166;28;20046;-67
2021/03/15 03:24:23;;;;;;;4.35;2.05;;;6.50;73.60;;;;;;5091220;28;20038;-67
2021/03/15 03:26:51;;;;;;;5.57;2.35;;;6.60;73.80;;;;;;5089715;28;20380;-67
2021/03/15 03:29:17;;;;;;;6.88;2.72;;;6.50;74.10;;;;;;5091114;28;20032;-67
2021/03/15 03:31:46;;;;;;;7.32;2.38;;;6.50;74.70;;;;;;5090972;28;20039;-67
2021/03/15 03:34:13;;;;;;;6.63;2.67;;;6.50;74.40;;;;;;5090857;28;20024;-67
2021/03/15 03:36:39;;;;;;;7.05;3.22;;;6.50;74.40;;;;;;5090883;28;20412;-67
2021/03/15 03:39:06;;;;;;;4.32;2.03;;;6.40;74.50;;;;;;5090732;28;20020;-68
2021/03/15 03:41:32;;;;;;;7.07;2.42;;;6.40;74.50;;;;;;5090805;28;20519;-68
2021/03/15 03:43:58;;;;;;;;;;;6.40;74.80;;;;;;5090104;28;20051;-67
2021/03/15 03:46:23;;;;;;;7.53;2.75;;;6.40;74.90;;;;;;5090747;28;19918;-67
2021/03/15 03:48:49;;;;;;;;;;;6.40;74.60;;;;;;5091062;28;20024;-66
2021/03/15 03:51:19;;;;;;;9.13;3.15;;;6.40;74.80;;;;;;5090441;28;19904;-67
2021/03/15 03:53:53;;;;;;;7.22;2.53;;;6.40;74.00;;;;;;5090590;28;20028;-67
2021/03/15 03:56:31;;;;;;;5.38;2.25;;;6.40;73.30;;;;;;5090261;28;20452;-67
2021/03/15 03:58:58;;;;;;;5.55;2.40;;;6.40;73.50;;;;;;5090364;28;20107;-66
2021/03/15 04:01:31;;;;;;;8.95;3.03;;;6.40;73.80;;;;;;5090509;28;20119;-67
2021/03/15 04:03:59;;;;;;;7.20;2.92;;;6.40;74.20;;;;;;5090402;28;20024;-67
2021/03/15 04:06:28;;;;;;;7.15;2.80;;;6.40;74.80;;;;;;5090197;28;20048;-68
2021/03/15 04:08:57;;;;;;;6.80;2.45;;;6.30;75.00;;;;;;5090184;28;20762;-68
2021/03/15 04:11:29;;;;;;;6.63;2.58;;;6.30;75.10;;;;;;5090305;28;20024;-67
2021/03/15 04:13:56;;;;;;;7.63;3.00;;;6.40;75.50;;;;;;5088933;28;20030;-67
2021/03/15 04:16:30;;;;;;;8.25;3.45;;;6.30;75.90;;;;;;5090061;28;20115;-67
2021/03/15 04:18:59;;;;;;;5.88;2.90;;;6.30;76.00;;;;;;5090013;28;20024;-67
2021/03/15 04:21:28;;;;;;;5.95;2.95;;;6.30;76.10;;;;;;5088882;28;20515;-67
2021/03/15 04:23:56;;;;;;;7.45;3.22;;;6.20;76.00;;;;;;5089583;28;20032;-67
2021/03/15 04:26:23;;;;;;;8.05;3.17;;;6.20;76.10;;;;;;5089901;28;20044;-67
2021/03/15 04:28:51;;;;;;;6.10;3.25;;;6.20;76.20;;;;;;5089852;28;20695;-67
2021/03/15 04:31:18;;;;;;;9.48;3.85;;;6.20;75.90;;;;;;5089818;28;20017;-66
2021/03/15 04:33:45;;;;;;;7.60;3.17;;;6.20;75.90;;;;;;5089703;28;20039;-68
2021/03/15 04:36:13;;;;;;;6.97;2.78;;;6.20;75.90;;;;;;5089511;28;20060;-67
2021/03/15 04:38:40;;;;;;;6.85;3.53;;;6.20;76.40;;;;;;5089669;28;20103;-66
2021/03/15 04:41:06;;;;;;;8.20;4.28;;;6.10;75.90;;;;;;5089540;28;20031;-67
2021/03/15 04:43:32;;;;;;;9.07;3.85;;;6.10;75.90;;;;;;5089749;28;20074;-67
2021/03/15 04:45:58;;;;;;;;;;;6.10;75.90;;;;;;5088662;28;20404;-67
2021/03/15 04:48:26;;;;;;;10.57;4.63;;;6.10;76.10;;;;;;5089618;28;19912;-67
2021/03/15 04:51:00;;;;;;;13.02;6.13;;;6.00;76.30;;;;;;5089393;28;20055;-67
2021/03/15 04:53:27;;;;;;;8.80;3.05;;;6.00;76.30;;;;;;5089415;28;20107;-67
2021/03/15 04:55:57;;;;;;;7.85;3.63;;;6.00;76.70;;;;;;5089251;28;20115;-67
2021/03/15 04:58:24;;;;;;;9.57;2.80;;;6.00;76.60;;;;;;5089413;28;20031;-67
2021/03/15 05:00:53;;;;;;;6.03;2.67;;;6.00;76.80;;;;;;5089315;28;20031;-66
2021/03/15 05:03:19;;;;;;;6.38;2.65;;;6.00;76.40;;;;;;5089245;28;20113;-67
2021/03/15 05:05:46;;;;;;;10.52;3.78;;;6.00;76.30;;;;;;5089067;28;20538;-67
2021/03/15 05:08:17;;;;;;;7.40;2.90;;;6.00;76.40;;;;;;5089093;28;20016;-67
2021/03/15 05:10:45;;;;;;;6.55;2.95;;;5.90;76.70;;;;;;5088989;28;20060;-67
2021/03/15 05:13:12;;;;;;;7.45;3.47;;;5.90;76.90;;;;;;5088795;28;20024;-66
2021/03/15 05:15:38;;;;;;;13.45;4.63;;;5.90;74.00;;;;;;5088846;28;20051;-66
2021/03/15 05:18:08;;;;;;;9.65;3.88;;;6.00;74.40;;;;;;5088960;28;20028;-67
2021/03/15 05:20:35;;;;;;;10.68;4.57;;;6.10;70.10;;;;;;5088929;28;20036;-67
2021/03/15 05:23:03;;;;;;;10.18;3.60;;;6.10;70.10;;;;;;5088899;28;20027;-67
2021/03/15 05:25:30;;;;;;;10.77;4.80;;;6.30;67.90;;;;;;5088395;28;20055;-66
2021/03/15 05:27:56;;;;;;;10.75;5.30;;;6.30;65.40;;;;;;5088765;28;20392;-67
2021/03/15 05:30:22;;;;;;;;;;;6.40;64.20;;;;;;5089512;28;20036;-66
2021/03/15 05:32:51;;;;;;;14.43;6.70;;;6.30;65.80;;;;;;5088849;28;19958;-67
2021/03/15 05:35:18;;;;;;;10.77;5.55;;;6.40;65.00;;;;;;5088541;28;20028;-67
2021/03/15 05:37:46;;;;;;;10.27;5.22;;;6.50;63.80;;;;;;5088733;28;20032;-67
2021/03/15 05:40:21;;;;;;;12.15;5.03;;;6.50;62.30;;;;;;5088724;28;20090;-66
2021/03/15 05:43:21;;;;;;;10.63;4.28;;;6.50;62.20;;;;;;5088646;28;20036;-65
2021/03/15 05:46:07;;;;;;;10.05;4.18;;;6.50;61.80;;;;;;5088508;28;20042;-67
2021/03/15 05:48:47;;;;;;;11.65;4.20;;;6.60;60.70;;;;;;5087293;28;20028;-66
2021/03/15 05:52:04;;;;;;;12.18;4.80;;;6.60;60.70;;;;;;5088367;28;20039;-67
2021/03/15 05:54:55;;;;;;;8.70;4.13;;;6.70;59.90;;;;;;5075885;28;20408;-67
2021/03/15 05:57:41;;;;;;;11.93;5.18;;;6.80;59.00;;;;;;5088430;28;20024;-67
2021/03/15 06:00:32;;;;;;;16.07;7.80;;;6.80;58.30;;;;;;5088216;28;20107;-67
2021/03/15 06:03:27;;;;;;;16.70;8.43;;;6.80;58.30;;;;;;5088249;28;20262;-68
2021/03/15 06:05:55;;;;;;;12.27;5.85;;;6.90;58.80;;;;;;5088150;28;20044;-67
2021/03/15 06:08:49;;;;;;;15.10;5.78;;;6.90;58.00;;;;;;5086699;28;20053;-67
2021/03/15 06:11:20;;;;;;;8.98;3.83;;;7.00;57.20;;;;;;5087754;28;20043;-67
2021/03/15 06:13:46;;;;;;;7.97;3.38;;;7.00;57.10;;;;;;5086853;28;20028;-68
2021/03/15 06:16:12;;;;;;;;;;;7.10;56.80;;;;;;5087206;28;20118;-67
2021/03/15 06:18:39;;;;;;;8.27;3.28;;;7.10;57.00;;;;;;5088188;28;19908;-67
2021/03/15 06:21:05;;;;;;;12.57;4.13;;;7.10;55.60;;;;;;5088063;28;20060;-67
2021/03/15 06:23:31;;;;;;;7.13;3.20;;;7.30;54.80;;;;;;5088115;28;20073;-67
2021/03/15 06:25:57;;;;;;;;;;;7.30;54.20;;;;;;5088490;28;20035;-67
2021/03/15 06:28:24;;;;;;;9.73;3.13;;;7.30;55.30;;;;;;5088013;28;19912;-67
2021/03/15 06:30:51;;;;;;;10.93;3.90;;;7.30;55.00;;;;;;5088098;28;20119;-68
2021/03/15 06:33:18;;;;;;;10.75;4.13;;;7.40;53.60;;;;;;5087987;28;20935;-67
2021/03/15 06:35:57;;;;;;;7.45;3.17;;;7.60;52.60;;;;;;5087944;28;20055;-67
2021/03/15 06:38:24;;;;;;;11.95;3.88;;;7.50;53.30;;;;;;5090881;28;20461;-67
2021/03/15 06:40:50;;;;;;;9.85;4.20;;;7.50;53.20;;;;;;5090473;28;20053;-67
2021/03/15 06:43:18;;;;;;;10.52;4.82;;;7.60;51.70;;;;;;5091771;28;20027;-67
2021/03/15 06:45:53;;;;;;;9.05;3.45;;;7.60;52.10;;;;;;5091797;28;20032;-68
2021/03/15 06:48:19;;;;;;;7.85;3.00;;;7.80;51.90;;;;;;5091901;28;20031;-67
2021/03/15 06:50:46;;;;;;;7.90;3.03;;;7.90;50.80;;;;;;5091768;28;20119;-67
2021/03/15 06:53:12;;;;;;;8.02;3.55;;;8.20;49.30;;;;;;5090998;28;20814;-67
2021/03/15 06:55:37;;;;;;;;;;;8.10;49.20;;;;;;5091637;28;20503;-67
2021/03/15 06:58:25;;;;;;;5.20;2.08;;;8.20;48.60;;;;;;5091660;28;20389;-68
2021/03/15 07:01:11;;;;;;;5.63;2.08;;;8.30;48.40;;;;;;5091477;28;20677;-66
2021/03/15 07:03:37;;;;;;;3.33;1.38;;;8.30;48.90;;;;;;5091421;28;20035;-67
2021/03/15 07:06:04;;;;;;;4.05;1.58;;;8.30;48.50;;;;;;5091118;28;20185;-67
2021/03/15 07:08:30;;;;;;;6.90;1.88;;;8.50;47.50;;;;;;5091522;28;20020;-67
2021/03/15 07:10:56;;;;;;;;;;;8.50;48.40;;;;;;5091789;28;20026;-67
2021/03/15 07:13:24;;;;;;;5.47;1.90;;;8.50;47.60;;;;;;5091177;28;19908;-67
2021/03/15 07:15:55;;;;;;;4.90;1.75;;;8.60;47.50;;;;;;5091123;28;20039;-66
2021/03/15 07:18:26;;;;;;;5.25;1.45;;;8.60;47.30;;;;;;5090857;28;20039;-67
2021/03/15 07:20:57;;;;;;;6.85;2.20;;;8.60;47.60;;;;;;5090406;28;20043;-67
2021/03/15 07:23:45;;;;;;;5.00;1.83;;;8.70;47.70;;;;;;5091010;28;20031;-67
2021/03/15 07:26:15;;;;;;;4.95;1.83;;;8.80;46.50;;;;;;5090954;28;20024;-68
2021/03/15 07:28:42;;;;;;;3.65;1.33;;;8.90;46.70;;;;;;5090994;28;20040;-67
2021/03/15 07:31:31;;;;;;;4.45;1.92;;;9.10;46.80;;;;;;5090818;28;20043;-67
2021/03/15 07:33:57;;;;;;;4.93;2.38;;;9.40;46.30;;;;;;5090906;28;20020;-67
2021/03/15 07:36:25;;;;;;;;;;;9.70;46.20;;;;;;5091238;28;20400;-67
2021/03/15 07:38:52;;;;;;;6.32;1.75;;;10.00;44.30;;;;;;5090872;28;19911;-66
2021/03/15 07:41:19;;;;;;;6.25;2.33;;;10.10;43.80;;;;;;5090707;28;20065;-68
2021/03/15 07:43:45;;;;;;;5.88;2.10;;;10.20;43.50;;;;;;5090805;28;20107;-67
2021/03/15 07:46:20;;;;;;;4.80;1.70;;;10.50;42.90;;;;;;5090748;28;20032;-67
2021/03/15 07:48:46;;;;;;;4.72;2.15;;;10.50;42.00;;;;;;5090338;28;20024;-67
2021/03/15 07:51:12;;;;;;;;;;;10.20;42.30;;;;;;5089166;28;20060;-67
2021/03/15 07:53:46;;;;;;;9.02;3.40;;;10.40;42.50;;;;;;5089739;28;19962;-67
2021/03/15 07:56:22;;;;;;;6.68;2.35;;;10.40;41.00;;;;;;5089612;28;20140;-67
2021/03/15 07:58:51;;;;;;;4.57;1.73;;;10.60;41.50;;;;;;5090230;28;20110;-69
2021/03/15 08:01:17;;;;;;;4.68;1.95;;;10.50;41.30;;;;;;5090323;28;20035;-68
2021/03/15 08:03:43;;;;;;;7.15;2.65;;;10.70;41.10;;;;;;5090505;28;20477;-68
2021/03/15 08:06:09;;;;;;;;;;;10.70;40.90;;;;;;5090479;28;20052;-68
2021/03/15 08:08:36;;;;;;;6.17;2.60;;;10.80;41.40;;;;;;5090521;28;19908;-66
2021/03/15 08:11:03;;;;;;;4.40;1.88;;;11.20;39.80;;;;;;5090213;28;20574;-67
2021/03/15 08:13:34;;;;;;;3.92;1.20;;;11.40;39.80;;;;;;5090252;28;20032;-67
2021/03/15 08:16:00;;;;;;;3.90;1.38;;;11.80;36.80;;;;;;5090049;28;20036;-67
2021/03/15 08:18:28;;;;;;;8.77;2.03;;;11.70;37.80;;;;;;5090120;28;20081;-67
2021/03/15 08:21:04;;;;;;;4.15;1.23;;;11.60;37.70;;;;;;5089870;28;20040;-67
2021/03/15 08:23:31;;;;;;;4.00;2.08;;;11.70;37.60;;;;;;5090074;28;20539;-68
2021/03/15 08:26:06;;;;;;;10.77;5.70;;;11.40;38.50;;;;;;5089755;28;20419;-68
2021/03/15 08:28:33;;;;;;;3.47;1.30;;;11.50;37.70;;;;;;5089945;28;20460;-67
2021/03/15 08:31:07;;;;;;;4.07;1.40;;;11.40;38.80;;;;;;5088448;28;20559;-68
2021/03/15 08:33:33;;;;;;;3.85;1.42;;;11.10;39.00;;;;;;5089893;28;20103;-67
2021/03/15 08:35:59;;;;;;;;;;;11.20;39.10;;;;;;5090131;28;20155;-68
2021/03/15 08:38:34;;;;;;;4.22;1.48;;;11.40;38.80;;;;;;5090095;28;19915;-67
2021/03/15 08:41:02;;;;;;;5.47;2.37;;;11.80;38.00;;;;;;5089671;28;20020;-67
2021/03/15 08:43:36;;;;;;;3.90;1.40;;;12.20;37.30;;;;;;5089754;28;20067;-68
2021/03/15 08:46:27;;;;;;;5.20;1.52;;;12.50;36.20;;;;;;5088289;28;20111;-68
2021/03/15 08:49:07;;;;;;;3.92;1.45;;;12.90;36.50;;;;;;5088280;28;20036;-68
2021/03/15 08:51:33;;;;;;;4.38;1.52;;;13.40;34.70;;;;;;5089672;28;20026;-68
2021/03/15 08:53:59;;;;;;;;;;;13.50;33.00;;;;;;5089886;28;20032;-68
2021/03/15 08:56:27;;;;;;;4.57;1.55;;;13.30;34.00;;;;;;5089288;28;19923;-68
2021/03/15 08:59:00;;;;;;;3.22;1.40;;;13.10;34.60;;;;;;5089363;28;20024;-68
2021/03/15 09:01:47;;;;;;;2.97;1.60;;;13.10;34.60;;;;;;5088708;28;20020;-68
2021/03/15 09:04:42;;;;;;;3.45;1.40;;;13.00;34.20;;;;;;5089250;28;20049;-69
2021/03/15 09:07:39;;;;;;;3.40;1.00;;;13.20;33.50;;;;;;5089002;28;20032;-67
2021/03/15 09:10:22;;;;;;;4.18;1.67;;;13.30;32.30;;;;;;5089136;28;20484;-68
2021/03/15 09:13:22;;;;;;;4.97;1.20;;;13.20;31.80;;;;;;5087698;28;20035;-68
2021/03/15 09:15:56;;;;;;;2.45;1.10;;;12.80;31.90;;;;;;5087375;28;20040;-68
2021/03/15 09:18:50;;;;;;;4.55;1.58;;;12.70;33.00;;;;;;5088882;28;20027;-67
2021/03/15 09:21:28;;;;;;;3.38;1.23;;;12.80;32.20;;;;;;5088777;28;20016;-67
2021/03/15 09:24:00;;;;;;;6.00;1.60;;;12.60;32.50;;;;;;5088973;28;20477;-67
2021/03/15 09:26:25;;;;;;;5.50;0.95;;;12.70;32.30;;;;;;5087536;28;20020;-67
2021/03/15 09:28:54;;;;;;;;;;;12.10;33.40;;;;;;5089336;28;20058;-68
2021/03/15 09:31:21;;;;;;;2.25;0.90;;;12.40;32.90;;;;;;5088777;28;19914;-68
2021/03/15 09:33:47;;;;;;;2.85;0.90;;;12.70;32.30;;;;;;5088622;28;20024;-68
2021/03/15 09:36:26;;;;;;;4.70;1.38;;;13.00;33.50;;;;;;5087213;28;20043;-68
2021/03/15 09:38:54;;;;;;;2.65;1.17;;;13.60;30.40;;;;;;5088687;28;20023;-68
2021/03/15 09:41:22;;;;;;;4.22;1.05;;;13.60;30.80;;;;;;5088632;28;20045;-68
2021/03/15 09:43:49;;;;;;;4.10;1.45;;;13.90;29.60;;;;;;5088526;28;20050;-68
2021/03/15 09:46:15;;;;;;;2.80;0.95;;;14.00;30.10;;;;;;5088503;28;20028;-67
2021/03/15 09:48:41;;;;;;;;;;;14.30;29.30;;;;;;5087639;28;20016;-68
2021/03/15 09:51:10;;;;;;;5.50;1.38;;;14.30;29.80;;;;;;5088368;28;19908;-68
2021/03/15 09:53:35;;;;;;;2.60;1.10;;;14.50;28.90;;;;;;5088491;28;20052;-68
2021/03/15 09:56:02;;;;;;;;;;;15.00;28.00;;;;;;5088892;28;20090;-68
2021/03/15 09:58:28;;;;;;;3.90;1.20;;;14.80;27.10;;;;;;5088434;28;19908;-68
2021/03/15 10:00:54;;;;;;;;;;;14.40;28.00;;;;;;5088669;28;20036;-67
2021/03/15 10:03:26;;;;;;;5.13;1.77;;;14.70;27.10;;;;;;5088381;28;19904;-66
2021/03/15 10:05:53;;;;;;;3.15;1.05;;;14.30;27.60;;;;;;5086790;28;20546;-66
2021/03/15 10:08:18;;;;;;;4.65;1.52;;;14.20;28.20;;;;;;5088349;28;20038;-67
2021/03/15 10:10:44;;;;;;;;;;;14.00;28.90;;;;;;5088994;28;20040;-67
2021/03/15 10:13:10;;;;;;;2.35;0.65;;;14.10;29.00;;;;;;5090937;28;19910;-67
2021/03/15 10:15:36;;;;;;;1.92;0.73;;;14.80;27.90;;;;;;5092251;28;20481;-68
2021/03/15 10:18:02;;;;;;;2.08;0.73;;;16.00;25.60;;;;;;5092297;28;20034;-67
2021/03/15 10:20:31;;;;;;;3.30;1.02;;;16.50;24.50;;;;;;5092272;28;20027;-67
2021/03/15 10:22:57;;;;;;;3.00;1.48;;;16.50;26.00;;;;;;5092263;28;20035;-68
2021/03/15 10:25:23;;;;;;;2.78;0.95;;;16.40;25.50;;;;;;5092222;28;20020;-68
2021/03/15 10:27:59;;;;;;;4.20;1.23;;;16.40;25.30;;;;;;5090958;28;20028;-68
2021/03/15 10:30:30;;;;;;;3.55;1.05;;;16.60;24.90;;;;;;5092188;28;20020;-67
2021/03/15 10:32:57;;;;;;;2.40;0.95;;;15.80;25.20;;;;;;5092091;28;20016;-68
2021/03/15 10:35:25;;;;;;;5.45;1.10;;;15.70;25.80;;;;;;5091944;28;20065;-68
2021/03/15 10:37:53;;;;;;;3.90;1.02;;;15.70;25.50;;;;;;5092040;28;20028;-67
2021/03/15 10:40:20;;;;;;;3.88;1.40;;;15.30;26.20;;;;;;5092084;28;20029;-66
2021/03/15 10:42:47;;;;;;;3.40;1.10;;;14.70;27.00;;;;;;5091993;28;20035;-67
2021/03/15 10:45:14;;;;;;;16.65;8.75;;;14.30;27.50;;;;;;5091704;28;20036;-67
2021/03/15 10:47:40;;;;;;;5.50;2.55;;;14.00;27.70;;;;;;5091867;28;20028;-68
2021/03/15 10:50:32;;;;;;;14.98;5.90;;;13.60;27.70;;;;;;5090464;28;20412;-66
2021/03/15 10:53:10;;;;;;;5.60;2.70;;;13.30;28.90;;;;;;5091701;28;20111;-68
2021/03/15 10:55:35;;;;;;;5.40;2.40;;;13.40;29.20;;;;;;5091665;28;20048;-67
2021/03/15 10:58:03;;;;;;;;;;;13.60;27.50;;;;;;5090845;28;20449;-68
2021/03/15 11:00:30;;;;;;;5.60;1.40;;;13.60;28.70;;;;;;5091701;28;20392;-67
2021/03/15 11:02:57;;;;;;;3.67;1.70;;;13.60;28.80;;;;;;5091623;28;20131;-67
2021/03/15 11:05:23;;;;;;;2.75;1.05;;;13.80;27.80;;;;;;5091355;28;20056;-67
2021/03/15 11:07:50;;;;;;;;;;;13.50;28.40;;;;;;5091963;28;20519;-68
2021/03/15 11:10:21;;;;;;;2.45;0.93;;;13.40;29.00;;;;;;5091596;28;19908;-68
2021/03/15 11:12:50;;;;;;;11.88;2.65;;;13.30;29.60;;;;;;5091454;28;20035;-68
2021/03/15 11:15:37;;;;;;;3.08;1.52;;;13.60;28.40;;;;;;5090962;28;20453;-67
2021/03/15 11:18:10;;;;;;;8.98;4.55;;;13.30;28.40;;;;;;5091183;28;20097;-67
2021/03/15 11:20:48;;;;;;;4.45;1.73;;;13.10;29.40;;;;;;5091321;28;20551;-67
2021/03/15 11:23:32;;;;;;;4.45;2.20;;;13.20;28.70;;;;;;5090386;28;20044;-69
2021/03/15 11:26:05;;;;;;;5.43;2.97;;;13.10;28.50;;;;;;5091029;28;20114;-68
2021/03/15 11:28:39;;;;;;;3.80;2.40;;;13.20;27.70;;;;;;5091161;28;20032;-67
2021/03/15 11:31:11;;;;;;;3.40;1.25;;;13.00;28.80;;;;;;5091015;28;20024;-68
2021/03/15 11:33:37;;;;;;;4.10;1.65;;;12.80;29.50;;;;;;5090984;28;20024;-68
2021/03/15 11:36:11;;;;;;;;;;;12.90;28.90;;;;;;5091288;28;20028;-68
2021/03/15 11:38:37;;;;;;;4.70;1.00;;;13.10;28.90;;;;;;5090905;28;19908;-68
2021/03/15 11:41:03;;;;;;;;;;;13.20;29.00;;;;;;5090036;28;20024;-68
2021/03/15 11:43:28;;;;;;;3.80;1.52;;;13.10;28.70;;;;;;5090694;28;20383;-67
2021/03/15 11:45:54;;;;;;;;;;;13.20;27.90;;;;;;5091307;28;20032;-68
2021/03/15 11:48:20;;;;;;;3.38;1.10;;;13.00;28.40;;;;;;5090831;28;19912;-68
2021/03/15 11:50:46;;;;;;;3.80;0.98;;;13.00;28.60;;;;;;5090690;28;20035;-67
2021/03/15 11:53:12;;;;;;;;;;;13.10;28.80;;;;;;5090966;28;20032;-66
2021/03/15 11:55:38;;;;;;;2.75;0.82;;;13.10;29.20;;;;;;5089160;28;19912;-68
2021/03/15 11:58:04;;;;;;;;;;;13.20;28.20;;;;;;5091134;28;20488;-68
2021/03/15 12:00:29;;;;;;;2.10;0.90;;;13.50;28.10;;;;;;5090367;28;19904;-67
2021/03/15 12:02:55;;;;;;;;;;;13.60;27.10;;;;;;5090867;28;20035;-67
2021/03/15 12:05:22;;;;;;;1.17;0.43;;;13.40;28.10;;;;;;5090149;28;19916;-67
2021/03/15 12:07:48;;;;;;;8.93;3.10;;;13.00;27.30;;;;;;5090309;28;20060;-68
2021/03/15 12:10:15;;;;;;;6.65;2.30;;;12.90;29.00;;;;;;5090213;28;20363;-68
2021/03/15 12:12:41;;;;;;;10.65;4.70;;;13.10;28.10;;;;;;5089095;28;20488;-68
2021/03/15 12:15:09;;;;;;;;;;;13.20;27.70;;;;;;5090397;28;20028;-66
2021/03/15 12:17:35;;;;;;;4.32;1.75;;;13.20;28.30;;;;;;5090251;28;19962;-68
2021/03/15 12:20:05;;;;;;;;;;;13.30;27.90;;;;;;5090596;28;20035;-67
2021/03/15 12:22:31;;;;;;;9.52;3.50;;;13.20;28.70;;;;;;5090003;28;19904;-68
2021/03/15 12:24:56;;;;;;;;;;;13.10;29.60;;;;;;5090365;28;20026;-67
2021/03/15 12:27:22;;;;;;;2.97;1.02;;;13.00;28.30;;;;;;5089955;28;19908;-68
2021/03/15 12:29:47;;;;;;;;;;;13.10;28.80;;;;;;5090340;28;20377;-68
2021/03/15 12:32:13;;;;;;;18.05;1.63;;;13.20;28.50;;;;;;5089895;28;19915;-66
2021/03/15 12:34:39;;;;;;;;;;;13.20;28.90;;;;;;5087753;28;20489;-67
2021/03/15 12:37:04;;;;;;;3.08;1.23;;;13.30;28.60;;;;;;5089797;28;19918;-68
2021/03/15 12:39:30;;;;;;;;;;;13.30;28.90;;;;;;5090304;28;20024;-68
2021/03/15 12:41:57;;;;;;;3.30;1.10;;;13.40;28.10;;;;;;5089799;28;20277;-67
2021/03/15 12:44:23;;;;;;;8.43;2.75;;;13.30;28.70;;;;;;5089839;28;20032;-66
2021/03/15 12:46:48;;;;;;;;;;;13.20;28.30;;;;;;5089983;28;20442;-67
2021/03/15 12:49:14;;;;;;;3.30;1.48;;;13.20;28.00;;;;;;5089365;28;19912;-66
2021/03/15 12:51:40;;;;;;;;;;;13.30;27.60;;;;;;5089918;28;20024;-68
2021/03/15 12:54:06;;;;;;;7.63;2.92;;;13.30;27.70;;;;;;5089337;28;19904;-67
2021/03/15 12:56:32;;;;;;;3.60;1.63;;;13.10;27.90;;;;;;5089236;28;20090;-68
2021/03/15 12:58:57;;;;;;;;;;;13.10;27.50;;;;;;5089685;28;20024;-68
2021/03/15 13:01:23;;;;;;;4.43;1.10;;;12.80;27.80;;;;;;5089337;28;20470;-67
2021/03/15 13:03:49;;;;;;;;;;;12.70;28.00;;;;;;5089595;28;20027;-67
2021/03/15 13:06:17;;;;;;;23.85;16.27;;;12.70;27.80;;;;;;5089003;28;19928;-67
2021/03/15 13:08:46;;;;;;;7.05;2.00;;;13.00;28.00;;;;;;5089123;28;20031;-67
2021/03/15 13:11:11;;;;;;;5.78;2.53;;;13.10;28.40;;;;;;5089128;28;20027;-67
2021/03/15 13:13:37;;;;;;;;;;;13.10;28.60;;;;;;5089597;28;20549;-68
2021/03/15 13:16:04;;;;;;;7.63;1.80;;;13.00;28.00;;;;;;5089078;28;19924;-67
2021/03/15 13:18:29;;;;;;;15.27;7.80;;;13.00;27.70;;;;;;5089041;28;20086;-67